Time,TemperatureF,DewpointF,PressureIn,WindDirection,WindDirectionDegrees,WindSpeedMPH,WindSpeedGustMPH,Humidity,HourlyPrecipIn,Conditions,Clouds,dailyrainin,SoftwareType,DateUTC
2013-03-10 07:12:00,47.0,25.0,-100.00,SSE,160,4.0,7.0,42,0.00,,,-99.99,,2013-03-10 11:12:00,
2013-03-10 07:21:00,47.0,25.0,-100.00,SE,145,5.0,8.0,42,0.00,,,-99.99,,2013-03-10 11:21:00,
2013-03-10 07:32:00,47.0,25.0,-100.00,SSE,160,3.0,7.0,42,0.00,,,-99.99,,2013-03-10 11:32:00,
2013-03-10 07:42:00,47.0,25.0,-100.00,SSE,150,2.0,7.0,42,0.00,,,-99.99,,2013-03-10 11:42:00,
2013-03-10 07:52:00,47.0,25.0,-100.00,South,175,2.0,5.0,42,0.00,,,-99.99,,2013-03-10 11:52:00,
2013-03-10 08:01:00,47.0,26.0,-100.00,South,175,3.0,6.0,43,0.00,,,-99.99,,2013-03-10 12:01:00,
2013-03-10 08:11:00,46.0,26.0,-100.00,SSE,150,2.0,5.0,43,0.00,,,-99.99,,2013-03-10 12:11:00,
2013-03-10 08:21:00,46.0,26.0,-100.00,SSE,160,2.0,6.0,44,0.00,,,-99.99,,2013-03-10 12:21:00,
2013-03-10 08:31:00,46.0,26.0,-100.00,South,170,2.0,6.0,44,0.00,,,-99.99,,2013-03-10 12:31:00,
2013-03-10 08:42:00,47.0,27.0,-100.00,SSW,205,2.0,4.0,45,0.55,,,-99.99,,2013-03-10 12:42:00,
2013-03-10 08:51:00,46.0,30.0,-100.00,SW,215,4.0,6.0,52,0.55,,,-99.99,,2013-03-10 12:51:00,
2013-03-10 09:01:00,46.0,30.0,-100.00,SW,215,3.0,6.0,54,0.55,,,-99.99,,2013-03-10 13:01:00,
2013-03-10 09:11:00,45.0,31.0,-100.00,South,175,1.0,4.0,56,0.00,,,-99.99,,2013-03-10 13:11:00,
2013-03-10 09:21:00,45.0,34.0,-100.00,SSE,150,1.0,2.0,65,0.00,,,-99.99,,2013-03-10 13:21:00,
2013-03-10 09:32:00,46.0,35.0,-100.00,SSE,155,1.0,3.0,66,0.00,,,-99.99,,2013-03-10 13:32:00,
2013-03-10 09:41:00,47.0,33.0,-100.00,SSE,160,2.0,4.0,58,0.00,,,-99.99,,2013-03-10 13:41:00,
2013-03-10 09:52:00,46.0,32.0,-100.00,SE,145,4.0,6.0,57,0.00,,,-99.99,,2013-03-10 13:52:00,
2013-03-10 10:02:00,47.0,33.0,-100.00,SE,140,2.0,9.0,57,0.00,,,-99.99,,2013-03-10 14:02:00,
2013-03-10 10:11:00,47.0,33.0,-100.00,South,170,3.0,6.0,57,0.00,,,-99.99,,2013-03-10 14:11:00,
2013-03-10 10:21:00,48.0,33.0,-100.00,South,170,4.0,6.0,53,0.00,,,-99.99,,2013-03-10 14:21:00,
2013-03-10 10:32:00,49.0,32.0,-100.00,South,170,4.0,8.0,51,0.00,,,-99.99,,2013-03-10 14:32:00,
2013-03-10 10:42:00,51.0,32.0,-100.00,South,190,4.0,11.0,48,0.00,,,-99.99,,2013-03-10 14:42:00,
2013-03-10 10:51:00,51.0,30.0,-100.00,SSW,195,4.0,14.0,44,0.00,,,-99.99,,2013-03-10 14:51:00,
2013-03-10 11:01:00,52.0,30.0,-100.00,SW,220,6.0,10.0,43,0.00,,,-99.99,,2013-03-10 15:01:00,
2013-03-10 11:11:00,53.0,29.0,-100.00,SW,215,4.0,11.0,40,0.00,,,-99.99,,2013-03-10 15:11:00,
2013-03-10 11:21:00,53.0,30.0,-100.00,SSW,195,5.0,12.0,41,0.00,,,-99.99,,2013-03-10 15:21:00,
2013-03-10 11:32:00,53.0,29.0,-100.00,SSW,195,4.0,11.0,39,0.00,,,-99.99,,2013-03-10 15:32:00,
2013-03-10 11:42:00,53.0,30.0,-100.00,South,185,4.0,11.0,40,0.00,,,-99.99,,2013-03-10 15:42:00,
2013-03-10 11:50:00,58.0,32.0,-100.00,SSW,200,4.0,11.0,36,0.00,,,-99.99,,2013-03-10 15:50:00,
2013-03-10 11:51:00,54.0,29.0,-100.00,South,185,4.0,11.0,38,0.00,,,-99.99,,2013-03-10 15:51:00,
2013-03-10 12:02:00,57.0,31.0,-100.00,SW,220,4.0,8.0,36,0.00,,,-99.99,,2013-03-10 16:02:00,
2013-03-10 12:12:00,58.0,32.0,-100.00,SSW,200,4.0,11.0,36,0.00,,,-99.99,,2013-03-10 16:12:00,
2013-03-10 12:21:00,58.0,32.0,-100.00,SSW,200,4.0,11.0,36,0.00,,,-99.99,,2013-03-10 16:21:00,
2013-03-10 12:32:00,58.0,32.0,-100.00,SSW,200,4.0,11.0,36,0.00,,,-99.99,,2013-03-10 16:32:00,
2013-03-10 12:41:00,58.0,32.0,-100.00,SSW,200,4.0,11.0,36,0.00,,,-99.99,,2013-03-10 16:41:00,
2013-03-10 19:12:00,66.0,31.0,-100.00,SE,145,4.0,9.0,26,0.00,,,-99.99,,2013-03-10 23:12:00,
2013-03-10 19:23:00,65.0,30.0,-100.00,SSE,165,3.0,7.0,26,0.00,,,-99.99,,2013-03-10 23:23:00,
2013-03-10 19:33:00,65.0,31.0,-100.00,South,170,4.0,7.0,27,0.00,,,-99.99,,2013-03-10 23:33:00,
2013-03-10 19:42:00,65.0,30.0,-100.00,South,175,3.0,6.0,27,0.00,,,-99.99,,2013-03-10 23:42:00,
2013-03-10 19:52:00,64.0,31.0,-100.00,SE,135,2.0,4.0,28,0.00,,,-99.99,,2013-03-10 23:52:00,
2013-03-10 20:02:00,64.0,31.0,-100.00,SE,135,3.0,4.0,29,0.00,,,-99.99,,2013-03-11 00:02:00,
2013-03-10 20:12:00,64.0,30.0,-100.00,SSE,160,2.0,4.0,28,0.00,,,-99.99,,2013-03-11 00:12:00,
2013-03-10 20:23:00,64.0,31.0,-100.00,SE,145,3.0,5.0,28,0.00,,,-99.99,,2013-03-11 00:23:00,
2013-03-10 20:33:00,63.0,31.0,-100.00,SE,135,4.0,6.0,29,0.00,,,-99.99,,2013-03-11 00:33:00,
2013-03-10 20:43:00,63.0,30.0,-100.00,SE,130,4.0,6.0,29,0.00,,,-99.99,,2013-03-11 00:43:00,
2013-03-10 20:52:00,62.0,31.0,-100.00,SE,125,4.0,7.0,30,0.00,,,-99.99,,2013-03-11 00:52:00,
2013-03-10 21:03:00,62.0,30.0,-100.00,SE,135,5.0,8.0,29,0.00,,,-99.99,,2013-03-11 01:03:00,
2013-03-10 21:13:00,62.0,31.0,-100.00,SE,135,4.0,9.0,30,0.00,,,-99.99,,2013-03-11 01:13:00,
2013-03-10 21:23:00,61.0,30.0,-100.00,SE,135,5.0,6.0,30,0.00,,,-99.99,,2013-03-11 01:23:00,
2013-03-10 21:32:00,61.0,30.0,-100.00,SSE,155,2.0,7.0,30,0.00,,,-99.99,,2013-03-11 01:32:00,
2013-03-10 21:42:00,61.0,30.0,-100.00,SE,130,4.0,6.0,31,0.00,,,-99.99,,2013-03-11 01:42:00,
2013-03-10 21:52:00,60.0,31.0,-100.00,SE,140,4.0,6.0,32,0.00,,,-99.99,,2013-03-11 01:52:00,
2013-03-10 22:02:00,60.0,30.0,-100.00,SE,140,4.0,9.0,32,0.00,,,-99.99,,2013-03-11 02:02:00,
2013-03-10 22:12:00,60.0,30.0,-100.00,SE,130,6.0,9.0,32,0.00,,,-99.99,,2013-03-11 02:12:00,
2013-03-10 22:23:00,61.0,30.0,-100.00,SE,130,7.0,9.0,30,0.00,,,-99.99,,2013-03-11 02:23:00,
2013-03-10 22:32:00,60.0,30.0,-100.00,SE,125,7.0,11.0,31,0.00,,,-99.99,,2013-03-11 02:32:00,
2013-03-10 22:42:00,60.0,29.0,-100.00,SE,145,9.0,12.0,30,0.00,,,-99.99,,2013-03-11 02:42:00,
2013-03-10 22:52:00,60.0,30.0,-100.00,SE,140,6.0,9.0,31,0.00,,,-99.99,,2013-03-11 02:52:00,
2013-03-10 23:02:00,59.0,30.0,-100.00,SE,145,6.0,10.0,32,0.00,,,-99.99,,2013-03-11 03:02:00,
2013-03-10 23:12:00,59.0,30.0,-100.00,SE,140,6.0,9.0,33,0.00,,,-99.99,,2013-03-11 03:12:00,
2013-03-10 23:22:00,59.0,30.0,-100.00,SE,145,7.0,11.0,32,0.00,,,-99.99,,2013-03-11 03:22:00,
2013-03-10 23:32:00,58.0,30.0,-100.00,SE,135,6.0,9.0,34,0.00,,,-99.99,,2013-03-11 03:32:00,
2013-03-10 23:42:00,58.0,31.0,-100.00,SE,140,6.0,8.0,35,0.00,,,-99.99,,2013-03-11 03:42:00,
2013-03-10 23:52:00,58.0,31.0,-100.00,SE,135,6.0,10.0,35,0.00,,,-99.99,,2013-03-11 03:52:00,